createdAt,value
2023-05-02T00:02:14.587Z,14.98
2023-05-02T00:04:46.603Z,14.88
2023-05-02T00:07:18.336Z,14.84
2023-05-02T00:09:50.067Z,14.84
2023-05-02T00:12:24.621Z,14.82
2023-05-02T00:14:56.300Z,14.73
2023-05-02T00:17:28.235Z,14.72
2023-05-02T00:20:00.168Z,14.71
2023-05-02T00:22:32.836Z,14.72
2023-05-02T00:25:05.891Z,14.68
2023-05-02T00:27:37.702Z,14.65
2023-05-02T00:30:11.756Z,14.62
2023-05-02T00:32:44.242Z,14.58
2023-05-02T00:35:16.081Z,14.58
2023-05-02T00:37:50.933Z,14.53
2023-05-02T00:40:22.660Z,14.54
2023-05-02T00:42:55.072Z,14.55
2023-05-02T00:45:26.968Z,14.50
2023-05-02T00:47:59.054Z,14.50
2023-05-02T00:50:32.766Z,14.50
2023-05-02T00:53:05.449Z,14.49
2023-05-02T00:55:37.438Z,14.47
2023-05-02T00:58:12.728Z,14.42
2023-05-02T01:01:15.949Z,14.41
2023-05-02T01:03:59.800Z,14.31
2023-05-02T01:06:43.944Z,14.24
2023-05-02T01:09:34.221Z,14.21
2023-05-02T01:12:23.928Z,14.17
2023-05-02T01:14:57.392Z,14.15
2023-05-02T01:17:32.903Z,14.14
2023-05-02T01:20:21.688Z,14.10
2023-05-02T01:22:56.533Z,14.10
2023-05-02T01:26:06.219Z,14.08
2023-05-02T01:29:04.801Z,14.00
2023-05-02T01:31:40.118Z,13.90
2023-05-02T01:34:13.361Z,13.85
2023-05-02T01:36:47.131Z,13.83
2023-05-02T01:39:21.944Z,13.79
2023-05-02T01:41:57.415Z,13.70
2023-05-02T01:44:30.474Z,13.72
2023-05-02T01:47:05.460Z,13.69
2023-05-02T01:49:38.603Z,13.70
2023-05-02T01:52:13.014Z,13.72
2023-05-02T01:54:46.564Z,13.72
2023-05-02T01:57:19.300Z,13.63
2023-05-02T01:59:55.346Z,13.64
2023-05-02T02:02:28.005Z,13.57
2023-05-02T02:05:00.921Z,13.55
2023-05-02T02:07:32.882Z,13.56
2023-05-02T02:10:05.135Z,13.56
2023-05-02T02:12:41.828Z,13.49
2023-05-02T02:15:19.949Z,13.44
2023-05-02T02:18:18.528Z,13.39
2023-05-02T02:20:51.502Z,13.37
2023-05-02T02:23:29.350Z,13.37
2023-05-02T02:26:03.053Z,13.38
2023-05-02T02:28:35.104Z,13.38
2023-05-02T02:31:07.650Z,13.37
2023-05-02T02:33:40.744Z,13.37
2023-05-02T02:36:19.196Z,13.32
2023-05-02T02:39:00.986Z,13.28
2023-05-02T02:41:48.121Z,13.25
2023-05-02T02:44:31.488Z,13.19
2023-05-02T02:47:13.193Z,13.17
2023-05-02T02:50:15.967Z,13.10
2023-05-02T02:52:57.661Z,13.01
2023-05-02T02:55:32.901Z,12.98
2023-05-02T02:58:15.665Z,12.80
2023-05-02T03:00:50.030Z,12.72
2023-05-02T03:03:29.187Z,12.69
2023-05-02T03:06:01.461Z,12.67
2023-05-02T03:08:44.579Z,12.62
2023-05-02T03:11:21.977Z,12.67
2023-05-02T03:13:53.906Z,12.68
2023-05-02T03:16:51.880Z,12.68
2023-05-02T03:19:24.698Z,12.70
2023-05-02T03:21:57.324Z,12.66
2023-05-02T03:24:29.739Z,12.59
2023-05-02T03:27:04.664Z,12.52
2023-05-02T03:29:43.037Z,12.49
2023-05-02T03:32:16.896Z,12.49
2023-05-02T03:34:49.504Z,12.45
2023-05-02T03:37:22.039Z,12.41
2023-05-02T03:39:53.898Z,12.41
2023-05-02T03:42:25.834Z,12.44
2023-05-02T03:44:57.620Z,12.47
2023-05-02T03:47:32.308Z,12.40
2023-05-02T03:50:04.221Z,12.44
2023-05-02T03:52:37.398Z,12.49
2023-05-02T03:55:10.645Z,12.53
2023-05-02T03:57:42.637Z,12.44
2023-05-02T04:00:17.631Z,12.39
2023-05-02T04:02:56.702Z,12.43
2023-05-02T04:05:31.557Z,12.49
2023-05-02T04:08:03.483Z,12.56
2023-05-02T04:10:36.040Z,12.61
2023-05-02T04:13:10.776Z,12.67
2023-05-02T04:15:45.970Z,12.71
2023-05-02T04:18:19.767Z,12.77
2023-05-02T04:20:51.792Z,12.76
2023-05-02T04:23:25.762Z,12.76
2023-05-02T04:26:02.711Z,12.79
2023-05-02T04:28:47.221Z,12.84
2023-05-02T04:31:20.834Z,12.85
2023-05-02T04:33:53.281Z,12.84
2023-05-02T04:36:29.177Z,12.82
2023-05-02T04:39:01.124Z,12.83
2023-05-02T04:41:34.414Z,12.84
2023-05-02T04:44:09.997Z,12.80
2023-05-02T04:46:43.703Z,12.83
2023-05-02T04:49:15.597Z,12.84
2023-05-02T04:51:47.386Z,12.86
2023-05-02T04:54:19.567Z,12.92
2023-05-02T04:56:52.007Z,12.90
2023-05-02T04:59:24.277Z,12.88
2023-05-02T05:01:57.368Z,12.93
2023-05-02T05:04:29.251Z,12.98
2023-05-02T05:07:01.543Z,12.93
2023-05-02T05:09:34.425Z,12.89
2023-05-02T05:12:06.215Z,12.86
2023-05-02T05:14:39.825Z,12.86
2023-05-02T05:17:12.879Z,12.82
2023-05-02T05:19:45.470Z,12.85
2023-05-02T05:22:17.749Z,12.92
2023-05-02T05:24:54.180Z,12.92
2023-05-02T05:27:28.686Z,12.95
2023-05-02T05:30:01.032Z,12.93
2023-05-02T05:32:34.053Z,12.92
2023-05-02T05:35:08.506Z,12.93
2023-05-02T05:37:41.634Z,12.95
2023-05-02T05:40:17.108Z,13.00
2023-05-02T05:42:53.396Z,13.04
2023-05-02T05:45:30.905Z,13.01
2023-05-02T05:48:02.672Z,12.99
2023-05-02T05:50:38.380Z,13.03
2023-05-02T05:53:10.310Z,13.08
2023-05-02T05:55:43.473Z,13.16
2023-05-02T05:58:15.534Z,13.22
2023-05-02T06:00:49.385Z,13.23
2023-05-02T06:03:21.791Z,13.23
2023-05-02T06:05:53.968Z,13.30
2023-05-02T06:08:25.737Z,13.31
2023-05-02T06:10:58.888Z,13.26
2023-05-02T06:13:30.716Z,13.27
2023-05-02T06:16:03.366Z,13.32
2023-05-02T06:18:35.616Z,13.40
2023-05-02T06:21:07.532Z,13.45
2023-05-02T06:23:39.397Z,13.50
2023-05-02T06:26:11.656Z,13.58
2023-05-02T06:28:43.551Z,13.58
2023-05-02T06:31:16.460Z,13.55
2023-05-02T06:33:48.280Z,13.49
2023-05-02T06:36:20.092Z,13.52
2023-05-02T06:38:51.925Z,13.55
2023-05-02T06:41:23.728Z,13.57
2023-05-02T06:43:56.673Z,13.62
2023-05-02T06:46:30.840Z,13.61
2023-05-02T06:49:02.626Z,13.58
2023-05-02T06:51:34.442Z,13.60
2023-05-02T06:54:06.267Z,13.65
2023-05-02T06:56:38.205Z,13.69
2023-05-02T06:59:09.976Z,13.66
2023-05-02T07:01:42.083Z,13.72
2023-05-02T07:04:13.941Z,13.80
2023-05-02T07:06:46.973Z,13.84
2023-05-02T07:09:19.154Z,13.90
2023-05-02T07:11:51.004Z,13.94
2023-05-02T07:14:22.850Z,14.03
2023-05-02T07:16:54.736Z,14.09
2023-05-02T07:19:26.625Z,14.19
2023-05-02T07:21:58.415Z,14.28
2023-05-02T07:24:30.680Z,14.31
2023-05-02T07:27:03.386Z,14.34
2023-05-02T07:29:35.163Z,14.47
2023-05-02T07:32:07.050Z,14.58
2023-05-02T07:34:38.799Z,14.69
2023-05-02T07:37:11.770Z,14.84
2023-05-02T07:39:43.510Z,15.00
2023-05-02T07:42:18.410Z,15.22
2023-05-02T07:44:50.432Z,15.50
2023-05-02T07:47:22.665Z,15.74
2023-05-02T07:49:55.548Z,15.87
2023-05-02T07:52:27.368Z,16.06
2023-05-02T07:54:59.072Z,16.24
2023-05-02T07:57:31.519Z,16.45
2023-05-02T08:00:04.493Z,16.68
2023-05-02T08:02:46.327Z,16.88
2023-05-02T08:05:18.499Z,17.08
2023-05-02T08:07:50.607Z,17.30
2023-05-02T08:10:24.271Z,17.52
2023-05-02T08:12:56.205Z,17.78
2023-05-02T08:15:28.100Z,17.89
2023-05-02T08:18:00.051Z,17.76
2023-05-02T08:20:31.840Z,17.83
2023-05-02T08:23:03.648Z,18.08
2023-05-02T08:25:35.402Z,18.21
2023-05-02T08:28:07.155Z,18.28
2023-05-02T08:30:38.945Z,18.42
2023-05-02T08:33:10.958Z,18.74
2023-05-02T08:35:42.992Z,19.01
2023-05-02T08:38:14.776Z,19.22
2023-05-02T08:40:49.426Z,19.38
2023-05-02T08:43:21.664Z,19.29
2023-05-02T08:45:57.992Z,19.52
2023-05-02T08:48:29.963Z,19.70
2023-05-02T08:51:03.482Z,19.84
2023-05-02T08:53:36.453Z,20.01
2023-05-02T08:56:09.852Z,20.12
2023-05-02T08:58:41.760Z,20.24
2023-05-02T09:01:16.412Z,20.38
2023-05-02T09:03:48.689Z,20.54
2023-05-02T09:06:22.840Z,20.50
2023-05-02T09:08:55.067Z,20.41
2023-05-02T09:11:26.928Z,20.63
2023-05-02T09:14:03.920Z,20.60
2023-05-02T09:16:40.604Z,20.58
2023-05-02T09:19:25.293Z,20.49
2023-05-02T09:22:04.229Z,20.39
2023-05-02T09:24:38.393Z,20.42
2023-05-02T09:27:10.506Z,20.65
2023-05-02T09:29:45.982Z,20.73
2023-05-02T09:32:17.692Z,20.84
2023-05-02T09:35:07.345Z,20.87
2023-05-02T09:37:39.178Z,20.89
2023-05-02T09:40:11.835Z,21.05
2023-05-02T09:42:43.694Z,20.92
2023-05-02T09:45:25.172Z,20.67
2023-05-02T09:48:02.254Z,20.19
2023-05-02T09:50:35.140Z,20.23
2023-05-02T09:53:09.618Z,20.34
2023-05-02T09:55:41.669Z,20.40
2023-05-02T09:58:24.174Z,20.41
2023-05-02T10:00:56.126Z,20.29
2023-05-02T10:03:29.261Z,20.20
2023-05-02T10:06:02.052Z,20.12
2023-05-02T10:08:34.127Z,20.12
2023-05-02T10:11:08.583Z,20.03
2023-05-02T10:13:42.937Z,20.09
2023-05-02T10:16:27.660Z,20.20
2023-05-02T10:19:03.322Z,20.38
2023-05-02T10:21:37.063Z,20.27
2023-05-02T10:24:09.238Z,20.03
2023-05-02T10:26:41.496Z,20.15
2023-05-02T10:29:13.787Z,20.33
2023-05-02T10:31:46.342Z,20.31
2023-05-02T10:34:19.050Z,20.52
2023-05-02T10:36:50.904Z,20.24
2023-05-02T10:39:24.997Z,19.93
2023-05-02T10:41:58.902Z,20.06
2023-05-02T10:44:35.850Z,20.30
2023-05-02T10:47:23.550Z,20.53
2023-05-02T10:49:58.018Z,20.52
2023-05-02T10:52:34.355Z,20.54
2023-05-02T10:55:24.581Z,20.49
2023-05-02T10:58:02.242Z,20.44
2023-05-02T11:00:34.796Z,20.36
2023-05-02T11:03:06.795Z,20.55
2023-05-02T11:06:05.453Z,20.67
2023-05-02T11:08:37.493Z,20.58
2023-05-02T11:11:37.974Z,20.49
2023-05-02T11:14:11.201Z,20.67
2023-05-02T11:16:59.127Z,20.87
2023-05-02T11:19:56.862Z,20.85
2023-05-02T11:22:32.242Z,20.82
2023-05-02T11:25:05.426Z,20.95
2023-05-02T11:27:43.470Z,21.23
2023-05-02T11:30:16.065Z,21.02
2023-05-02T11:32:49.245Z,20.83
2023-05-02T11:35:23.256Z,20.93
2023-05-02T11:38:01.431Z,21.12
2023-05-02T11:40:33.155Z,20.99
2023-05-02T11:43:16.947Z,20.78
2023-05-02T11:45:48.930Z,20.38
2023-05-02T11:48:23.056Z,20.29
2023-05-02T11:50:57.649Z,20.11
2023-05-02T11:53:31.436Z,20.15
2023-05-02T11:56:04.692Z,20.34
2023-05-02T11:58:36.686Z,20.50
2023-05-02T12:01:13.594Z,20.31
2023-05-02T12:03:45.815Z,20.11
2023-05-02T12:06:21.879Z,19.89
2023-05-02T12:09:07.306Z,19.82
2023-05-02T12:11:39.281Z,19.57
2023-05-02T12:14:11.539Z,19.37
2023-05-02T12:16:43.663Z,19.21
2023-05-02T12:19:16.536Z,19.09
2023-05-02T12:21:48.592Z,19.07
2023-05-02T12:24:21.479Z,19.02
2023-05-02T12:27:15.852Z,18.92
2023-05-02T12:29:49.056Z,18.85
2023-05-02T12:32:31.922Z,18.86
2023-05-02T12:35:04.276Z,18.85
2023-05-02T12:37:39.668Z,18.87
2023-05-02T12:40:17.331Z,18.82
2023-05-02T12:43:04.353Z,18.81
2023-05-02T12:45:36.668Z,18.81
2023-05-02T12:48:20.834Z,18.86
2023-05-02T12:50:53.599Z,18.68
2023-05-02T12:53:40.097Z,18.76
2023-05-02T12:56:13.376Z,18.70
2023-05-02T12:58:49.526Z,18.73
2023-05-02T13:01:21.349Z,18.91
2023-05-02T13:03:53.265Z,18.87
2023-05-02T13:06:25.377Z,18.84
2023-05-02T13:08:57.211Z,18.77
2023-05-02T13:11:29.441Z,18.73
2023-05-02T13:14:03.401Z,18.73
2023-05-02T13:16:37.344Z,18.63
2023-05-02T13:19:09.667Z,18.62
2023-05-02T13:21:41.428Z,18.62
2023-05-02T13:24:15.136Z,18.54
2023-05-02T13:26:46.949Z,18.42
2023-05-02T13:29:18.732Z,18.30
2023-05-02T13:31:50.774Z,18.32
2023-05-02T13:34:22.682Z,18.38
2023-05-02T13:36:54.449Z,18.36
2023-05-02T13:39:26.171Z,18.46
2023-05-02T13:41:58.070Z,18.64
2023-05-02T13:44:31.955Z,18.88
2023-05-02T13:47:04.095Z,19.09
2023-05-02T13:49:36.054Z,19.17
2023-05-02T13:52:07.825Z,19.23
2023-05-02T13:54:39.793Z,19.24
2023-05-02T13:57:12.044Z,19.29
2023-05-02T13:59:43.897Z,19.37
2023-05-02T14:02:16.380Z,19.41
2023-05-02T14:04:48.277Z,19.34
2023-05-02T14:07:24.195Z,19.41
2023-05-02T14:09:56.226Z,19.35
2023-05-02T14:12:28.405Z,19.22
2023-05-02T14:15:00.189Z,19.07
2023-05-02T14:17:32.438Z,19.05
2023-05-02T14:20:04.894Z,19.11
2023-05-02T14:22:36.713Z,19.07
2023-05-02T14:25:11.588Z,19.11
2023-05-02T14:27:43.992Z,19.08
2023-05-02T14:30:15.903Z,19.09
2023-05-02T14:32:47.649Z,19.02
2023-05-02T14:35:19.462Z,18.95
2023-05-02T14:37:51.419Z,18.83
2023-05-02T14:40:23.181Z,18.78
2023-05-02T14:42:54.919Z,18.81
2023-05-02T14:45:26.816Z,18.89
2023-05-02T14:47:58.683Z,18.83
2023-05-02T14:50:30.470Z,18.81
2023-05-02T14:53:02.338Z,18.78
2023-05-02T14:55:39.779Z,18.76
2023-05-02T14:58:11.971Z,18.74
2023-05-02T15:00:43.806Z,18.67
2023-05-02T15:03:15.847Z,18.61
2023-05-02T15:05:47.776Z,18.55
2023-05-02T15:08:19.682Z,18.60
2023-05-02T15:10:51.537Z,18.61
2023-05-02T15:13:23.498Z,18.60
2023-05-02T15:15:55.656Z,18.60
2023-05-02T15:18:27.461Z,18.55
2023-05-02T15:20:59.292Z,18.44
2023-05-02T15:23:31.615Z,18.39
2023-05-02T15:26:04.019Z,18.42
2023-05-02T15:28:35.837Z,18.43
2023-05-02T15:31:09.310Z,18.37
2023-05-02T15:33:41.334Z,18.25
2023-05-02T15:36:13.304Z,18.27
2023-05-02T15:38:45.097Z,18.22
2023-05-02T15:41:16.904Z,18.20
2023-05-02T15:43:48.701Z,18.18
2023-05-02T15:46:22.333Z,18.08
2023-05-02T15:48:54.524Z,18.06
2023-05-02T15:51:26.926Z,18.00
2023-05-02T15:53:59.149Z,17.96
2023-05-02T15:56:32.290Z,17.92
2023-05-02T15:59:04.206Z,17.90
2023-05-02T16:01:37.848Z,17.87
2023-05-02T16:04:10.047Z,17.90
2023-05-02T16:06:42.142Z,17.88
2023-05-02T16:09:13.981Z,17.95
2023-05-02T16:11:47.113Z,17.94
2023-05-02T16:14:18.812Z,17.91
2023-05-02T16:16:51.679Z,17.87
2023-05-02T16:19:23.495Z,17.90
2023-05-02T16:21:55.407Z,17.85
2023-05-02T16:24:27.700Z,17.76
2023-05-02T16:27:02.177Z,17.69
2023-05-02T16:29:33.810Z,17.65
2023-05-02T16:32:06.084Z,17.63
2023-05-02T16:34:39.024Z,17.67
2023-05-02T16:37:11.497Z,17.55
2023-05-02T16:39:43.304Z,17.46
2023-05-02T16:42:15.651Z,17.35
2023-05-02T16:44:48.009Z,17.33
2023-05-02T16:47:19.796Z,17.38
2023-05-02T16:49:55.619Z,17.45
2023-05-02T16:52:28.056Z,17.43
2023-05-02T16:55:00.831Z,17.28
2023-05-02T16:57:32.740Z,17.20
2023-05-02T17:00:05.427Z,17.14
2023-05-02T17:02:37.628Z,17.08
2023-05-02T17:05:10.726Z,17.02
2023-05-02T17:07:42.499Z,16.99
2023-05-02T17:10:14.330Z,16.96
2023-05-02T17:12:47.133Z,16.94
2023-05-02T17:15:18.913Z,16.86
2023-05-02T17:17:50.893Z,16.84
2023-05-02T17:20:22.792Z,16.89
2023-05-02T17:22:54.683Z,16.78
2023-05-02T17:25:26.798Z,16.72
2023-05-02T17:27:58.618Z,16.74
2023-05-02T17:30:30.595Z,16.74
2023-05-02T17:33:02.853Z,16.74
2023-05-02T17:35:34.680Z,16.77
2023-05-02T17:38:06.479Z,16.69
2023-05-02T17:40:38.514Z,16.64
2023-05-02T17:43:12.346Z,16.66
2023-05-02T17:45:44.415Z,16.70
2023-05-02T17:48:16.266Z,16.72
2023-05-02T17:50:49.934Z,16.76
2023-05-02T17:53:22.542Z,16.75
2023-05-02T17:55:54.836Z,16.74
2023-05-02T17:58:30.718Z,16.68
2023-05-02T18:01:09.927Z,16.66
2023-05-02T18:03:42.016Z,16.68
2023-05-02T18:06:18.270Z,16.61
2023-05-02T18:08:50.180Z,16.49
2023-05-02T18:11:24.201Z,16.45
2023-05-02T18:13:56.788Z,16.41
2023-05-02T18:16:28.565Z,16.34
2023-05-02T18:19:01.352Z,16.33
2023-05-02T18:21:35.431Z,16.33
2023-05-02T18:24:07.630Z,16.33
2023-05-02T18:26:39.493Z,16.28
2023-05-02T18:29:11.516Z,16.26
2023-05-02T18:31:43.446Z,16.19
2023-05-02T18:34:15.304Z,16.13
2023-05-02T18:36:47.020Z,16.14
2023-05-02T18:39:21.506Z,16.10
2023-05-02T18:41:53.272Z,16.03
2023-05-02T18:44:25.169Z,16.02
2023-05-02T18:47:01.137Z,16.02
2023-05-02T18:49:33.964Z,16.03
2023-05-02T18:52:05.761Z,16.03
2023-05-02T18:54:37.762Z,15.97
2023-05-02T18:57:09.588Z,15.96
2023-05-02T18:59:41.353Z,15.89
2023-05-02T19:02:14.894Z,15.68
2023-05-02T19:04:46.808Z,15.47
2023-05-02T19:07:18.573Z,15.33
2023-05-02T19:09:51.297Z,15.12
2023-05-02T19:12:23.710Z,14.96
2023-05-02T19:14:55.606Z,14.83
2023-05-02T19:17:27.711Z,14.71
2023-05-02T19:19:59.762Z,14.62
2023-05-02T19:22:34.526Z,14.58
2023-05-02T19:25:09.596Z,14.53
2023-05-02T19:27:44.208Z,14.46
2023-05-02T19:30:15.879Z,14.39
2023-05-02T19:32:48.071Z,14.35
2023-05-02T19:35:20.009Z,14.31
2023-05-02T19:37:51.761Z,14.30
2023-05-02T19:40:23.553Z,14.21
2023-05-02T19:42:55.589Z,14.17
2023-05-02T19:45:27.818Z,14.15
2023-05-02T19:47:59.606Z,14.15
2023-05-02T19:50:33.294Z,14.13
2023-05-02T19:53:05.218Z,14.16
2023-05-02T19:55:36.994Z,14.07
2023-05-02T19:58:08.911Z,14.00
2023-05-02T20:00:43.899Z,13.98
2023-05-02T20:03:16.349Z,13.93
2023-05-02T20:05:50.042Z,13.98
2023-05-02T20:08:23.875Z,13.96
2023-05-02T20:10:56.291Z,13.93
2023-05-02T20:13:28.173Z,13.92
2023-05-02T20:15:59.968Z,13.91
2023-05-02T20:18:31.860Z,13.94
2023-05-02T20:21:03.669Z,13.90
2023-05-02T20:23:35.572Z,13.82
2023-05-02T20:26:07.421Z,13.71
2023-05-02T20:28:40.750Z,13.68
2023-05-02T20:31:12.491Z,13.66
2023-05-02T20:33:46.111Z,13.63
2023-05-02T20:36:18.289Z,13.60
2023-05-02T20:38:50.602Z,13.55
2023-05-02T20:41:23.946Z,13.56
2023-05-02T20:43:57.099Z,13.50
2023-05-02T20:46:29.219Z,13.46
2023-05-02T20:49:01.265Z,13.45
2023-05-02T20:51:35.628Z,13.37
2023-05-02T20:54:07.382Z,13.31
2023-05-02T20:56:39.402Z,13.29
2023-05-02T20:59:11.640Z,13.31
2023-05-02T21:01:43.379Z,13.27
2023-05-02T21:04:15.445Z,13.27
2023-05-02T21:06:47.691Z,13.21
2023-05-02T21:09:19.614Z,13.21
2023-05-02T21:11:51.424Z,13.18
2023-05-02T21:14:26.523Z,13.19
2023-05-02T21:16:58.280Z,13.12
2023-05-02T21:19:33.195Z,13.09
2023-05-02T21:22:05.163Z,13.03
2023-05-02T21:24:37.095Z,12.97
2023-05-02T21:27:11.674Z,12.91
2023-05-02T21:29:43.531Z,12.84
2023-05-02T21:32:15.521Z,12.82
2023-05-02T21:34:47.274Z,12.79
2023-05-02T21:37:19.103Z,12.71
2023-05-02T21:39:50.968Z,12.66
2023-05-02T21:42:22.846Z,12.67
2023-05-02T21:44:59.471Z,12.70
2023-05-02T21:47:32.421Z,12.62
2023-05-02T21:50:05.497Z,12.61
2023-05-02T21:52:37.436Z,12.61
2023-05-02T21:55:09.390Z,12.55
2023-05-02T21:57:44.029Z,12.55
2023-05-02T22:00:15.717Z,12.52
2023-05-02T22:02:47.919Z,12.41
2023-05-02T22:05:19.782Z,12.38
2023-05-02T22:07:52.350Z,12.39
2023-05-02T22:10:24.075Z,12.40
2023-05-02T22:12:56.665Z,12.43
2023-05-02T22:15:28.399Z,12.40
2023-05-02T22:18:01.601Z,12.36
2023-05-02T22:20:33.440Z,12.30
2023-05-02T22:23:05.843Z,12.29
2023-05-02T22:25:41.937Z,12.27
2023-05-02T22:28:13.920Z,12.25
2023-05-02T22:30:46.183Z,12.18
2023-05-02T22:33:17.993Z,12.19
2023-05-02T22:35:49.726Z,12.13
2023-05-02T22:38:21.528Z,12.09
2023-05-02T22:40:53.515Z,12.12
2023-05-02T22:43:25.699Z,12.19
2023-05-02T22:45:58.946Z,12.17
2023-05-02T22:48:31.038Z,12.14
2023-05-02T22:51:03.028Z,12.11
2023-05-02T22:53:35.301Z,12.09
2023-05-02T22:56:07.208Z,12.10
2023-05-02T22:58:38.992Z,12.10
2023-05-02T23:01:11.610Z,12.09
2023-05-02T23:03:43.675Z,12.08
2023-05-02T23:06:15.447Z,12.07
2023-05-02T23:08:47.269Z,12.09
2023-05-02T23:11:19.074Z,12.05
2023-05-02T23:13:50.837Z,12.00
2023-05-02T23:16:22.833Z,12.02
2023-05-02T23:18:54.698Z,11.98
2023-05-02T23:21:26.474Z,11.94
2023-05-02T23:23:58.528Z,11.91
2023-05-02T23:26:30.566Z,11.84
2023-05-02T23:29:02.503Z,11.75
2023-05-02T23:31:34.428Z,11.75
2023-05-02T23:34:07.244Z,11.75
2023-05-02T23:36:39.550Z,11.74
2023-05-02T23:39:11.812Z,11.74
2023-05-02T23:41:43.650Z,11.63
2023-05-02T23:44:17.576Z,11.59
2023-05-02T23:46:50.347Z,11.62
2023-05-02T23:49:22.191Z,11.60
2023-05-02T23:51:53.952Z,11.62
2023-05-02T23:54:26.142Z,11.55
2023-05-02T23:56:58.613Z,11.53
2023-05-02T23:59:30.429Z,11.49
